| time (UTC) | temp C | wind direction | speed KPH | gust KPH | rain 1hr cm | rain 24hr cm | rain mn cm | humidity % | barometer mb |
| 20260507160831 | 31 | 225 | 6.4 | 11.3 | 0.00 | 0.00 | 0.00 | 61 | 1014.8 |
| 20260507160321 | 31 | 226 | 8.0 | 14.5 | 0.00 | 0.00 | 0.00 | 62 | 1015.0 |
| 20260507155836 | 31 | 186 | 6.4 | 14.5 | 0.00 | 0.00 | 0.00 | 60 | 1015.1 |
| 20260507155318 | 31 | 245 | 6.4 | 11.3 | 0.00 | 0.00 | 0.00 | 61 | 1015.1 |
| 20260507154852 | 31 | 243 | 8.0 | 16.1 | 0.00 | 0.00 | 0.00 | 62 | 1015.1 |
| 20260507154341 | 31 | 183 | 6.4 | 16.1 | 0.00 | 0.00 | 0.00 | 62 | 1015.1 |
| 20260507153831 | 31 | 257 | 6.4 | 12.9 | 0.00 | 0.00 | 0.00 | 62 | 1015.0 |
| 20260507153338 | 31 | 251 | 8.0 | 14.5 | 0.00 | 0.00 | 0.00 | 60 | 1015.1 |
| 20260507152825 | 31 | 249 | 4.8 | 14.5 | 0.00 | 0.00 | 0.00 | 62 | 1015.2 |
| 20260507152405 | 31 | 230 | 8.0 | 16.1 | 0.00 | 0.00 | 0.00 | 61 | 1015.3 |
| 20260507151834 | 31 | 214 | 8.0 | 16.1 | 0.00 | 0.00 | 0.00 | 62 | 1015.3 |
| 20260507151319 | 31 | 250 | 9.7 | 17.7 | 0.00 | 0.00 | 0.00 | 61 | 1015.3 |
| 20260507150835 | 31 | 267 | 9.7 | 17.7 | 0.00 | 0.00 | 0.00 | 60 | 1015.4 |
| 20260507150338 | 31 | 250 | 4.8 | 16.1 | 0.00 | 0.00 | 0.00 | 62 | 1015.4 |
| 20260507145824 | 30 | 262 | 8.0 | 16.1 | 0.00 | 0.00 | 0.00 | 63 | 1015.4 |
| 20260507145338 | 30 | 215 | 6.4 | 16.1 | 0.00 | 0.00 | 0.00 | 65 | 1015.3 |
| 20260507144846 | 30 | 199 | 9.7 | 20.9 | 0.00 | 0.00 | 0.00 | 64 | 1015.5 |
| 20260507144328 | 30 | 261 | 9.7 | 20.9 | 0.00 | 0.00 | 0.00 | 64 | 1015.5 |
| 20260507143822 | 30 | 248 | 6.4 | 14.5 | 0.00 | 0.00 | 0.00 | 66 | 1015.4 |
| 20260507143334 | 30 | 260 | 8.0 | 12.9 | 0.00 | 0.00 | 0.00 | 66 | 1015.4 |
| 20260507142844 | 30 | 264 | 8.0 | 14.5 | 0.00 | 0.00 | 0.00 | 65 | 1015.4 |
| 20260507142332 | 30 | 253 | 8.0 | 14.5 | 0.00 | 0.00 | 0.00 | 65 | 1015.4 |
| 20260507141840 | 30 | 248 | 8.0 | 14.5 | 0.00 | 0.00 | 0.00 | 66 | 1015.5 |
| 20260507141325 | 29 | 278 | 4.8 | 14.5 | 0.00 | 0.00 | 0.00 | 67 | 1015.5 |
| 20260507140845 | 28 | 225 | 8.0 | 17.7 | 0.00 | 0.00 | 0.00 | 67 | 1015.5 |
| 20260507140336 | 29 | 239 | 9.7 | 17.7 | 0.00 | 0.00 | 0.00 | 67 | 1015.6 |
| 20260507135842 | 29 | 243 | 6.4 | 12.9 | 0.00 | 0.00 | 0.00 | 69 | 1015.6 |
| 20260507135344 | 28 | 261 | 4.8 | 16.1 | 0.00 | 0.00 | 0.00 | 71 | 1015.6 |
| 20260507134831 | 28 | 243 | 11.3 | 16.1 | 0.00 | 0.00 | 0.00 | 70 | 1015.5 |
| 20260507134343 | 27 | 258 | 8.0 | 14.5 | 0.00 | 0.00 | 0.00 | 71 | 1015.4 |
| 20260507133833 | 27 | 245 | 11.3 | 19.3 | 0.00 | 0.00 | 0.00 | 71 | 1015.3 |
| 20260507133321 | 27 | 213 | 11.3 | 19.3 | 0.00 | 0.00 | 0.00 | 73 | 1015.4 |
| 20260507132856 | 27 | 232 | 8.0 | 12.9 | 0.00 | 0.00 | 0.00 | 75 | 1015.5 |
| 20260507132326 | 27 | 248 | 8.0 | 12.9 | 0.00 | 0.00 | 0.00 | 76 | 1015.5 |
| 20260507131859 | 26 | 203 | 6.4 | 11.3 | 0.00 | 0.00 | 0.00 | 76 | 1015.6 |
| 20260507131331 | 26 | 242 | 4.8 | 12.9 | 0.00 | 0.00 | 0.00 | 77 | 1015.5 |
| 20260507130826 | 26 | 235 | 9.7 | 12.9 | 0.00 | 0.00 | 0.00 | 77 | 1015.5 |
| 20260507130346 | 26 | 220 | 8.0 | 12.9 | 0.00 | 0.00 | 0.00 | 77 | 1015.5 |
| 20260507125829 | 26 | 224 | 6.4 | 11.3 | 0.00 | 0.00 | 0.00 | 78 | 1015.6 |
| 20260507125337 | 26 | 238 | 6.4 | 11.3 | 0.00 | 0.00 | 0.00 | 79 | 1015.4 |
| 20260507124828 | 25 | 240 | 6.4 | 11.3 | 0.00 | 0.00 | 0.00 | 79 | 1015.7 |
| 20260507124320 | 25 | 205 | 4.8 | 9.7 | 0.00 | 0.00 | 0.00 | 80 | 1015.8 |
| 20260507123836 | 25 | 205 | 4.8 | 12.9 | 0.00 | 0.00 | 0.00 | 81 | 1015.7 |
| 20260507123341 | 25 | 238 | 4.8 | 12.9 | 0.00 | 0.00 | 0.00 | 82 | 1015.7 |
| 20260507122829 | 25 | 212 | 6.4 | 11.3 | 0.00 | 0.00 | 0.00 | 81 | 1015.5 |
| 20260507122340 | 25 | 236 | 6.4 | 11.3 | 0.00 | 0.00 | 0.00 | 82 | 1015.5 |
| 20260507121830 | 25 | 240 | 6.4 | 11.3 | 0.00 | 0.00 | 0.00 | 83 | 1015.6 |
| 20260507121336 | 24 | 198 | 6.4 | 12.9 | 0.00 | 0.00 | 0.00 | 83 | 1015.6 |
| 20260507120844 | 24 | 211 | 6.4 | 12.9 | 0.00 | 0.00 | 0.00 | 84 | 1015.6 |
| 20260507120341 | 24 | 227 | 4.8 | 9.7 | 0.00 | 0.00 | 0.00 | 84 | 1015.6 |
| 20260507115835 | 24 | 245 | 4.8 | 9.7 | 0.00 | 0.00 | 0.00 | 85 | 1015.5 |
| 20260507115319 | 23 | 248 | 4.8 | 8.0 | 0.00 | 0.00 | 0.00 | 85 | 1015.6 |
| 20260507114831 | 23 | 264 | 3.2 | 8.0 | 0.00 | 0.00 | 0.00 | 85 | 1015.6 |
| 20260507114345 | 23 | 245 | 4.8 | 8.0 | 0.00 | 0.00 | 0.00 | 85 | 1015.5 |
| 20260507113834 | 23 | 249 | 3.2 | 9.7 | 0.00 | 0.00 | 0.00 | 85 | 1015.4 |
| 20260507113319 | 23 | 247 | 3.2 | 8.0 | 0.00 | 0.00 | 0.00 | 85 | 1015.4 |
| 20260507112843 | 23 | 259 | 1.6 | 6.4 | 0.00 | 0.00 | 0.00 | 85 | 1015.4 |
| 20260507112326 | 23 | 244 | 3.2 | 6.4 | 0.00 | 0.00 | 0.00 | 85 | 1015.4 |
| 20260507111905 | 23 | 259 | 4.8 | 9.7 | 0.00 | 0.00 | 0.00 | 85 | 1015.3 |
| 20260507111326 | 23 | 255 | 6.4 | 11.3 | 0.00 | 0.00 | 0.00 | 85 | 1015.3 |
| 20260507110834 | 23 | 242 | 6.4 | 11.3 | 0.00 | 0.00 | 0.00 | 85 | 1015.2 |
| 20260507110342 | 23 | 259 | 4.8 | 9.7 | 0.00 | 0.00 | 0.00 | 85 | 1015.1 |
| 20260507105846 | 23 | 258 | 4.8 | 9.7 | 0.00 | 0.00 | 0.00 | 85 | 1015.1 |
| 20260507105318 | 23 | 241 | 3.2 | 8.0 | 0.00 | 0.00 | 0.00 | 85 | 1015.1 |
| 20260507104833 | 23 | 296 | 3.2 | 8.0 | 0.00 | 0.00 | 0.00 | 85 | 1015.0 |
| 20260507104317 | 23 | 248 | 4.8 | 8.0 | 0.00 | 0.00 | 0.00 | 85 | 1014.9 |
| 20260507103837 | 23 | 238 | 1.6 | 4.8 | 0.00 | 0.00 | 0.00 | 84 | 1014.9 |
| 20260507103321 | 23 | 232 | 1.6 | 4.8 | 0.00 | 0.00 | 0.00 | 84 | 1014.8 |
| 20260507102833 | 23 | 232 | 1.6 | 3.2 | 0.00 | 0.00 | 0.00 | 84 | 1014.9 |
| 20260507102336 | 23 | 237 | 1.6 | 6.4 | 0.00 | 0.00 | 0.00 | 85 | 1014.9 |
| 20260507101843 | 23 | 246 | 1.6 | 6.4 | 0.00 | 0.00 | 0.00 | 84 | 1014.9 |
| 20260507101327 | 23 | 257 | 3.2 | 8.0 | 0.00 | 0.00 | 0.00 | 84 | 1014.5 |
| 20260507100836 | 23 | 242 | 4.8 | 8.0 | 0.00 | 0.00 | 0.00 | 85 | 1014.5 |
| 20260507100342 | 23 | 243 | 3.2 | 9.7 | 0.00 | 0.00 | 0.00 | 85 | 1014.3 |
| 20260507095830 | 23 | 250 | 6.4 | 11.3 | 0.00 | 0.00 | 0.00 | 85 | 1014.3 |
| 20260507095334 | 23 | 230 | 6.4 | 9.7 | 0.00 | 0.00 | 0.00 | 85 | 1014.3 |
| 20260507094818 | 23 | 238 | 6.4 | 9.7 | 0.00 | 0.00 | 0.00 | 85 | 1014.3 |
| 20260507094354 | 23 | 220 | 6.4 | 9.7 | 0.00 | 0.00 | 0.00 | 85 | 1014.1 |
| 20260507093823 | 23 | 220 | 6.4 | 8.0 | 0.00 | 0.00 | 0.00 | 85 | 1014.2 |
| 20260507093317 | 23 | 223 | 4.8 | 6.4 | 0.00 | 0.00 | 0.00 | 85 | 1014.2 |
| 20260507092835 | 23 | 237 | 4.8 | 6.4 | 0.00 | 0.00 | 0.00 | 85 | 1014.2 |
| 20260507092322 | 23 | 255 | 4.8 | 6.4 | 0.00 | 0.00 | 0.00 | 85 | 1014.2 |
| 20260507091837 | 23 | 259 | 1.6 | 3.2 | 0.00 | 0.00 | 0.00 | 85 | 1014.1 |
| 20260507091340 | 23 | 303 | 1.6 | 6.4 | 0.00 | 0.00 | 0.00 | 85 | 1014.3 |
| 20260507090824 | 23 | 252 | 3.2 | 6.4 | 0.00 | 0.00 | 0.00 | 85 | 1014.0 |
| 20260507090340 | 23 | 246 | 4.8 | 6.4 | 0.00 | 0.00 | 0.00 | 85 | 1014.1 |
| 20260507085843 | 23 | 255 | 1.6 | 6.4 | 0.00 | 0.00 | 0.00 | 84 | 1014.1 |
| 20260507085326 | 23 | 261 | 3.2 | 8.0 | 0.00 | 0.00 | 0.00 | 84 | 1013.9 |
| 20260507084819 | 23 | 259 | 3.2 | 8.0 | 0.00 | 0.00 | 0.00 | 84 | 1013.8 |
| 20260507084340 | 23 | 254 | 1.6 | 6.4 | 0.00 | 0.00 | 0.00 | 84 | 1013.8 |
| 20260507083820 | 23 | 253 | 3.2 | 6.4 | 0.00 | 0.00 | 0.00 | 84 | 1013.9 |
| 20260507083319 | 23 | 251 | 3.2 | 6.4 | 0.00 | 0.00 | 0.00 | 84 | 1013.7 |
| 20260507082836 | 23 | 241 | 3.2 | 8.0 | 0.00 | 0.00 | 0.00 | 84 | 1013.8 |
| 20260507082343 | 23 | 250 | 3.2 | 8.0 | 0.00 | 0.00 | 0.00 | 84 | 1013.8 |
| 20260507081830 | 23 | 248 | 3.2 | 6.4 | 0.00 | 0.00 | 0.00 | 84 | 1013.8 |
| 20260507081338 | 23 | 252 | 3.2 | 8.0 | 0.00 | 0.00 | 0.00 | 84 | 1013.8 |
| 20260507080843 | 23 | 240 | 4.8 | 8.0 | 0.00 | 0.00 | 0.00 | 84 | 1013.7 |
| 20260507080329 | 23 | 239 | 4.8 | 6.4 | 0.00 | 0.00 | 0.00 | 84 | 1013.7 |
| 20260507075818 | 23 | 253 | 4.8 | 6.4 | 0.00 | 0.00 | 0.00 | 84 | 1013.9 |
| 20260507075335 | 23 | 256 | 3.2 | 8.0 | 0.00 | 0.00 | 0.00 | 84 | 1013.8 |
| 20260507074821 | 23 | 255 | 4.8 | 9.7 | 0.00 | 0.00 | 0.00 | 84 | 1013.7 |
| 20260507074400 | 23 | 247 | 4.8 | 6.4 | 0.00 | 0.00 | 0.00 | 84 | 1013.9 |
| 20260507073831 | 23 | 267 | 3.2 | 9.7 | 0.00 | 0.00 | 0.00 | 84 | 1013.9 |
| 20260507073318 | 23 | 250 | 6.4 | 9.7 | 0.00 | 0.00 | 0.00 | 83 | 1013.9 |
| 20260507072850 | 23 | 215 | 4.8 | 8.0 | 0.00 | 0.00 | 0.00 | 83 | 1013.9 |
| 20260507072321 | 23 | 248 | 3.2 | 8.0 | 0.00 | 0.00 | 0.00 | 83 | 1013.9 |
| 20260507071834 | 23 | 221 | 4.8 | 8.0 | 0.00 | 0.00 | 0.00 | 83 | 1014.1 |
| 20260507071339 | 23 | 232 | 4.8 | 11.3 | 0.00 | 0.00 | 0.00 | 83 | 1014.2 |
| 20260507070831 | 23 | 244 | 6.4 | 11.3 | 0.00 | 0.00 | 0.00 | 83 | 1014.3 |
| 20260507070336 | 23 | 237 | 4.8 | 8.0 | 0.00 | 0.00 | 0.00 | 82 | 1014.2 |
| 20260507065845 | 23 | 250 | 4.8 | 9.7 | 0.00 | 0.00 | 0.00 | 82 | 1014.3 |
| 20260507065332 | 23 | 251 | 4.8 | 6.4 | 0.00 | 0.00 | 0.00 | 82 | 1014.4 |
| 20260507064839 | 24 | 257 | 3.2 | 4.8 | 0.00 | 0.00 | 0.00 | 81 | 1014.6 |
| 20260507064327 | 24 | 302 | 0.0 | 4.8 | 0.00 | 0.00 | 0.00 | 81 | 1014.5 |
| 20260507063859 | 24 | 82 | 0.0 | 4.8 | 0.00 | 0.00 | 0.00 | 81 | 1014.6 |
| 20260507063326 | 24 | 245 | 1.6 | 6.4 | 0.00 | 0.00 | 0.00 | 81 | 1014.7 |
| 20260507062839 | 24 | 252 | 3.2 | 6.4 | 0.00 | 0.00 | 0.00 | 81 | 1014.8 |
| 20260507062328 | 24 | 257 | 1.6 | 9.7 | 0.00 | 0.00 | 0.00 | 80 | 1014.7 |
| 20260507061846 | 24 | 260 | 3.2 | 9.7 | 0.00 | 0.00 | 0.00 | 80 | 1014.8 |
| 20260507061330 | 24 | 263 | 3.2 | 8.0 | 0.00 | 0.00 | 0.00 | 80 | 1015.0 |
| 20260507060839 | 24 | 259 | 4.8 | 8.0 | 0.00 | 0.00 | 0.00 | 80 | 1014.9 |
| 20260507060333 | 24 | 226 | 4.8 | 8.0 | 0.00 | 0.00 | 0.00 | 79 | 1014.8 |
| 20260507055859 | 25 | 244 | 4.8 | 8.0 | 0.00 | 0.00 | 0.00 | 79 | 1014.8 |
| 20260507055325 | 25 | 223 | 3.2 | 11.3 | 0.00 | 0.00 | 0.00 | 79 | 1014.9 |
| 20260507054905 | 25 | 235 | 4.8 | 11.3 | 0.00 | 0.00 | 0.00 | 78 | 1014.9 |
| 20260507054335 | 25 | 225 | 4.8 | 11.3 | 0.00 | 0.00 | 0.00 | 78 | 1014.9 |
| 20260507053842 | 25 | 246 | 4.8 | 9.7 | 0.00 | 0.00 | 0.00 | 77 | 1015.1 |
| 20260507053334 | 25 | 284 | 3.2 | 9.7 | 0.00 | 0.00 | 0.00 | 76 | 1015.1 |
| 20260507052827 | 26 | 246 | 6.4 | 20.9 | 0.00 | 0.00 | 0.00 | 76 | 1015.1 |
| 20260507052337 | 26 | 252 | 11.3 | 20.9 | 0.00 | 0.00 | 0.00 | 76 | 1015.2 |
| 20260507051842 | 26 | 217 | 9.7 | 12.9 | 0.00 | 0.00 | 0.00 | 76 | 1015.1 |
| 20260507051331 | 26 | 171 | 6.4 | 16.1 | 0.00 | 0.00 | 0.00 | 76 | 1015.3 |
| 20260507050844 | 26 | 219 | 8.0 | 19.3 | 0.00 | 0.00 | 0.00 | 76 | 1015.3 |
| 20260507050319 | 26 | 170 | 11.3 | 22.5 | 0.00 | 0.00 | 0.00 | 76 | 1015.2 |
| 20260507045835 | 26 | 173 | 12.9 | 22.5 | 0.00 | 0.00 | 0.00 | 76 | 1015.3 |
| 20260507045337 | 26 | 192 | 14.5 | 20.9 | 0.00 | 0.00 | 0.00 | 77 | 1015.3 |
| 20260507044843 | 26 | 138 | 14.5 | 24.1 | 0.00 | 0.00 | 0.00 | 76 | 1015.3 |
| 20260507044331 | 26 | 185 | 12.9 | 22.5 | 0.00 | 0.00 | 0.00 | 76 | 1015.2 |
| 20260507043837 | 26 | 194 | 16.1 | 24.1 | 0.00 | 0.00 | 0.00 | 76 | 1015.1 |
| 20260507043325 | 26 | 169 | 16.1 | 24.1 | 0.00 | 0.00 | 0.00 | 76 | 1015.1 |
| 20260507042816 | 26 | 167 | 14.5 | 25.7 | 0.00 | 0.00 | 0.00 | 76 | 1015.0 |
| 20260507042341 | 26 | 163 | 16.1 | 22.5 | 0.00 | 0.00 | 0.00 | 76 | 1014.9 |
| 20260507041857 | 26 | 184 | 16.1 | 22.5 | 0.00 | 0.00 | 0.00 | 76 | 1014.9 |
| 20260507041346 | 26 | 197 | 11.3 | 17.7 | 0.00 | 0.00 | 0.00 | 76 | 1015.1 |
| 20260507040831 | 26 | 192 | 11.3 | 17.7 | 0.00 | 0.00 | 0.00 | 76 | 1015.1 |
| 20260507040336 | 26 | 175 | 9.7 | 17.7 | 0.00 | 0.00 | 0.00 | 75 | 1015.1 |
| 20260507035838 | 26 | 151 | 8.0 | 24.1 | 0.00 | 0.00 | 0.00 | 76 | 1015.4 |
| 20260507035329 | 26 | 150 | 14.5 | 24.1 | 0.00 | 0.00 | 0.00 | 75 | 1015.4 |
| 20260507034837 | 26 | 149 | 8.0 | 16.1 | 0.00 | 0.00 | 0.00 | 75 | 1015.3 |
| 20260507034324 | 26 | 168 | 9.7 | 20.9 | 0.00 | 0.00 | 0.00 | 75 | 1015.2 |
| 20260507033842 | 26 | 190 | 14.5 | 20.9 | 0.00 | 0.00 | 0.00 | 75 | 1015.2 |
| 20260507033348 | 26 | 113 | 14.5 | 19.3 | 0.00 | 0.00 | 0.00 | 76 | 1015.2 |
| 20260507032818 | 26 | 173 | 12.9 | 19.3 | 0.00 | 0.00 | 0.00 | 76 | 1015.2 |
| 20260507032350 | 26 | 188 | 14.5 | 24.1 | 0.00 | 0.00 | 0.00 | 76 | 1015.2 |
| 20260507031845 | 26 | 197 | 12.9 | 24.1 | 0.00 | 0.00 | 0.00 | 75 | 1015.2 |
| 20260507031347 | 26 | 173 | 14.5 | 20.9 | 0.00 | 0.00 | 0.00 | 76 | 1015.2 |
| 20260507030829 | 26 | 174 | 14.5 | 24.1 | 0.00 | 0.00 | 0.00 | 76 | 1015.0 |
| 20260507030326 | 26 | 174 | 17.7 | 22.5 | 0.00 | 0.00 | 0.00 | 75 | 1015.0 |
| 20260507025817 | 26 | 182 | 14.5 | 22.5 | 0.00 | 0.00 | 0.00 | 76 | 1015.2 |
| 20260507025339 | 26 | 182 | 14.5 | 22.5 | 0.00 | 0.00 | 0.00 | 76 | 1015.2 |
| 20260507024833 | 26 | 176 | 12.9 | 20.9 | 0.00 | 0.00 | 0.00 | 76 | 1015.2 |
| 20260507024404 | 26 | 184 | 14.5 | 20.9 | 0.00 | 0.00 | 0.00 | 75 | 1015.1 |
| 20260507023845 | 26 | 184 | 14.5 | 20.9 | 0.00 | 0.00 | 0.00 | 76 | 1015.2 |
| 20260507023334 | 26 | 176 | 14.5 | 20.9 | 0.00 | 0.00 | 0.00 | 76 | 1015.3 |
| 20260507022858 | 26 | 176 | 12.9 | 20.9 | 0.00 | 0.00 | 0.00 | 76 | 1015.2 |
| 20260507022325 | 26 | 167 | 16.1 | 24.1 | 0.00 | 0.00 | 0.00 | 75 | 1015.3 |
| 20260507021843 | 26 | 180 | 16.1 | 24.1 | 0.00 | 0.00 | 0.00 | 75 | 1015.1 |
| 20260507021331 | 26 | 166 | 14.5 | 20.9 | 0.00 | 0.00 | 0.00 | 75 | 1015.2 |
| 20260507020833 | 26 | 160 | 11.3 | 17.7 | 0.00 | 0.00 | 0.00 | 75 | 1015.3 |
| 20260507020344 | 26 | 196 | 9.7 | 19.3 | 0.00 | 0.00 | 0.00 | 75 | 1015.2 |
| 20260507015841 | 26 | 163 | 11.3 | 19.3 | 0.00 | 0.00 | 0.00 | 75 | 1015.4 |
| 20260507015331 | 27 | 135 | 11.3 | 17.7 | 0.00 | 0.00 | 0.00 | 75 | 1015.4 |
| 20260507014821 | 26 | 194 | 8.0 | 14.5 | 0.00 | 0.00 | 0.00 | 75 | 1015.4 |
| 20260507014337 | 26 | 115 | 9.7 | 16.1 | 0.00 | 0.00 | 0.00 | 75 | 1015.4 |
| 20260507013823 | 26 | 196 | 11.3 | 17.7 | 0.00 | 0.00 | 0.00 | 74 | 1015.3 |
| 20260507013359 | 27 | 180 | 11.3 | 20.9 | 0.00 | 0.00 | 0.00 | 75 | 1015.5 |
| 20260507012845 | 27 | 169 | 12.9 | 22.5 | 0.00 | 0.00 | 0.00 | 74 | 1015.4 |
| 20260507012334 | 27 | 173 | 12.9 | 19.3 | 0.00 | 0.00 | 0.00 | 74 | 1015.5 |
| 20260507011839 | 27 | 190 | 9.7 | 17.7 | 0.00 | 0.00 | 0.00 | 74 | 1015.4 |
| 20260507011326 | 27 | 182 | 12.9 | 17.7 | 0.00 | 0.00 | 0.00 | 73 | 1015.3 |
| 20260507010847 | 27 | 166 | 9.7 | 20.9 | 0.00 | 0.00 | 0.00 | 72 | 1015.2 |
| 20260507010329 | 27 | 160 | 11.3 | 20.9 | 0.00 | 0.00 | 0.00 | 73 | 1015.1 |
| 20260507005821 | 27 | 170 | 11.3 | 19.3 | 0.00 | 0.00 | 0.00 | 73 | 1015.2 |
| 20260507005328 | 27 | 165 | 12.9 | 19.3 | 0.00 | 0.00 | 0.00 | 71 | 1015.1 |
| 20260507004832 | 27 | 174 | 11.3 | 19.3 | 0.00 | 0.00 | 0.00 | 72 | 1015.1 |
| 20260507004343 | 27 | 164 | 11.3 | 19.3 | 0.00 | 0.00 | 0.00 | 71 | 1015.0 |
| 20260507003850 | 27 | 182 | 12.9 | 17.7 | 0.00 | 0.00 | 0.00 | 70 | 1015.1 |
| 20260507003341 | 27 | 180 | 9.7 | 16.1 | 0.00 | 0.00 | 0.00 | 71 | 1015.0 |
| 20260507002906 | 27 | 136 | 9.7 | 16.1 | 0.00 | 0.00 | 0.00 | 70 | 1014.9 |
| 20260507002332 | 27 | 161 | 8.0 | 17.7 | 0.00 | 0.00 | 0.00 | 71 | 1014.8 |
| 20260507001838 | 27 | 144 | 8.0 | 19.3 | 0.00 | 0.00 | 0.00 | 71 | 1014.8 |
| 20260507001329 | 27 | 153 | 12.9 | 19.3 | 0.00 | 0.00 | 0.00 | 70 | 1014.8 |
| 20260507000835 | 27 | 146 | 8.0 | 17.7 | 0.00 | 0.00 | 0.00 | 71 | 1014.8 |
| 20260507000330 | 27 | 146 | 12.9 | 19.3 | 0.00 | 0.00 | 0.00 | 70 | 1014.7 |
| 20260506235818 | 27 | 117 | 11.3 | 19.3 | 0.00 | 0.00 | 0.00 | 70 | 1014.8 |
| 20260506235318 | 27 | 158 | 11.3 | 17.7 | 0.00 | 0.00 | 0.00 | 69 | 1014.7 |
| 20260506234832 | 27 | 186 | 11.3 | 17.7 | 0.00 | 0.00 | 0.00 | 68 | 1014.6 |
| 20260506234318 | 27 | 152 | 9.7 | 17.7 | 0.00 | 0.00 | 0.00 | 69 | 1014.8 |
| 20260506233833 | 27 | 163 | 9.7 | 20.9 | 0.00 | 0.00 | 0.00 | 68 | 1014.8 |
| 20260506233324 | 27 | 171 | 12.9 | 20.9 | 0.00 | 0.00 | 0.00 | 67 | 1014.9 |
| 20260506232840 | 27 | 139 | 11.3 | 17.7 | 0.00 | 0.00 | 0.00 | 67 | 1015.0 |
| 20260506232328 | 27 | 171 | 9.7 | 16.1 | 0.00 | 0.00 | 0.00 | 67 | 1014.9 |
| 20260506231819 | 27 | 188 | 11.3 | 16.1 | 0.00 | 0.00 | 0.00 | 67 | 1014.9 |
| 20260506231337 | 27 | 195 | 8.0 | 17.7 | 0.00 | 0.00 | 0.00 | 67 | 1015.0 |
| 20260506230843 | 27 | 107 | 11.3 | 17.7 | 0.00 | 0.00 | 0.00 | 66 | 1014.9 |
| 20260506230334 | 27 | 208 | 8.0 | 14.5 | 0.00 | 0.00 | 0.00 | 66 | 1014.9 |
| 20260506225826 | 27 | 186 | 6.4 | 14.5 | 0.00 | 0.00 | 0.00 | 66 | 1015.0 |
| 20260506225400 | 27 | 183 | 8.0 | 14.5 | 0.00 | 0.00 | 0.00 | 65 | 1015.0 |
| 20260506224840 | 27 | 148 | 6.4 | 14.5 | 0.00 | 0.00 | 0.00 | 65 | 1015.0 |
| 20260506224344 | 27 | 153 | 4.8 | 14.5 | 0.00 | 0.00 | 0.00 | 63 | 1015.0 |
| 20260506223829 | 27 | 152 | 4.8 | 11.3 | 0.00 | 0.00 | 0.00 | 63 | 1015.0 |
| 20260506223406 | 27 | 119 | 6.4 | 14.5 | 0.00 | 0.00 | 0.00 | 64 | 1014.9 |
| 20260506222900 | 27 | 116 | 6.4 | 14.5 | 0.00 | 0.00 | 0.00 | 63 | 1014.9 |
| 20260506222323 | 27 | 128 | 6.4 | 14.5 | 0.00 | 0.00 | 0.00 | 63 | 1015.0 |
| 20260506221831 | 27 | 182 | 8.0 | 14.5 | 0.00 | 0.00 | 0.00 | 64 | 1015.1 |
| 20260506221341 | 27 | 194 | 6.4 | 16.1 | 0.00 | 0.00 | 0.00 | 66 | 1015.2 |
| 20260506220848 | 27 | 168 | 11.3 | 16.1 | 0.00 | 0.00 | 0.00 | 66 | 1015.2 |
| 20260506220337 | 27 | 188 | 9.7 | 17.7 | 0.00 | 0.00 | 0.00 | 66 | 1015.1 |
| 20260506215830 | 27 | 145 | 12.9 | 19.3 | 0.00 | 0.00 | 0.00 | 68 | 1015.1 |
| 20260506215341 | 27 | 167 | 11.3 | 17.7 | 0.00 | 0.00 | 0.00 | 67 | 1015.0 |
| 20260506214851 | 27 | 139 | 8.0 | 19.3 | 0.00 | 0.00 | 0.00 | 70 | 1015.0 |
| 20260506214341 | 27 | 92 | 11.3 | 19.3 | 0.00 | 0.00 | 0.00 | 68 | 1015.1 |
| 20260506213829 | 27 | 116 | 11.3 | 19.3 | 0.00 | 0.00 | 0.00 | 68 | 1015.0 |
| 20260506213336 | 27 | 180 | 9.7 | 16.1 | 0.00 | 0.00 | 0.00 | 70 | 1015.0 |
| 20260506212822 | 28 | 135 | 9.7 | 16.1 | 0.00 | 0.00 | 0.00 | 69 | 1015.0 |
| 20260506212334 | 28 | 142 | 6.4 | 16.1 | 0.00 | 0.00 | 0.00 | 71 | 1015.1 |
| 20260506211842 | 28 | 138 | 4.8 | 12.9 | 0.00 | 0.00 | 0.00 | 72 | 1015.1 |
| 20260506211346 | 27 | 114 | 6.4 | 16.1 | 0.00 | 0.00 | 0.00 | 72 | 1015.1 |
| 20260506210846 | 27 | 181 | 8.0 | 16.1 | 0.00 | 0.00 | 0.00 | 72 | 1015.1 |
| 20260506210351 | 27 | 179 | 11.3 | 17.7 | 0.00 | 0.00 | 0.00 | 71 | 1015.2 |
| 20260506205841 | 28 | 126 | 6.4 | 14.5 | 0.00 | 0.00 | 0.00 | 72 | 1015.2 |
| 20260506205334 | 28 | 143 | 9.7 | 14.5 | 0.00 | 0.00 | 0.00 | 72 | 1015.3 |
| 20260506204823 | 28 | 120 | 6.4 | 14.5 | 0.00 | 0.00 | 0.00 | 73 | 1015.3 |
| 20260506204358 | 28 | 105 | 8.0 | 14.5 | 0.00 | 0.00 | 0.00 | 72 | 1015.3 |
| 20260506203908 | 28 | 123 | 6.4 | 17.7 | 0.00 | 0.00 | 0.00 | 73 | 1015.1 |
| 20260506203355 | 28 | 182 | 6.4 | 14.5 | 0.00 | 0.00 | 0.00 | 73 | 1015.1 |
| 20260506202839 | 28 | 190 | 8.0 | 14.5 | 0.00 | 0.00 | 0.00 | 73 | 1015.1 |
| 20260506202322 | 28 | 179 | 8.0 | 16.1 | 0.00 | 0.00 | 0.00 | 73 | 1015.1 |
| 20260506201833 | 27 | 114 | 11.3 | 16.1 | 0.00 | 0.00 | 0.00 | 73 | 1015.0 |
| 20260506201339 | 28 | 115 | 9.7 | 16.1 | 0.00 | 0.00 | 0.00 | 73 | 1015.1 |
| 20260506200836 | 28 | 109 | 8.0 | 16.1 | 0.00 | 0.00 | 0.00 | 73 | 1015.1 |
| 20260506200338 | 28 | 176 | 8.0 | 16.1 | 0.00 | 0.00 | 0.00 | 74 | 1015.1 |
| 20260506195846 | 28 | 149 | 9.7 | 17.7 | 0.00 | 0.00 | 0.00 | 73 | 1015.1 |
| 20260506195352 | 28 | 210 | 6.4 | 17.7 | 0.00 | 0.00 | 0.00 | 73 | 1015.1 |
| 20260506194820 | 27 | 88 | 9.7 | 17.7 | 0.00 | 0.00 | 0.00 | 73 | 1015.2 |
| 20260506194335 | 28 | 113 | 9.7 | 17.7 | 0.00 | 0.00 | 0.00 | 73 | 1015.3 |
| 20260506193851 | 28 | 116 | 8.0 | 14.5 | 0.00 | 0.00 | 0.00 | 73 | 1015.3 |
| 20260506193401 | 28 | 117 | 8.0 | 14.5 | 0.00 | 0.00 | 0.00 | 74 | 1015.3 |
| 20260506192843 | 28 | 169 | 6.4 | 14.5 | 0.00 | 0.00 | 0.00 | 74 | 1015.4 |
| 20260506192332 | 27 | 93 | 8.0 | 17.7 | 0.00 | 0.00 | 0.00 | 74 | 1015.5 |
| 20260506191844 | 27 | 115 | 11.3 | 17.7 | 0.00 | 0.00 | 0.00 | 73 | 1015.5 |
| 20260506191402 | 28 | 140 | 9.7 | 17.7 | 0.00 | 0.00 | 0.00 | 73 | 1015.5 |
| 20260506190831 | 28 | 94 | 8.0 | 16.1 | 0.00 | 0.00 | 0.00 | 73 | 1015.6 |
| 20260506190320 | 28 | 114 | 6.4 | 14.5 | 0.00 | 0.00 | 0.00 | 73 | 1015.6 |
| 20260506185834 | 28 | 173 | 8.0 | 19.3 | 0.00 | 0.00 | 0.00 | 74 | 1015.7 |
| 20260506185334 | 28 | 182 | 11.3 | 19.3 | 0.00 | 0.00 | 0.00 | 73 | 1015.6 |
| 20260506184839 | 28 | 67 | 6.4 | 14.5 | 0.00 | 0.00 | 0.00 | 74 | 1015.8 |
| 20260506184334 | 28 | 172 | 6.4 | 14.5 | 0.00 | 0.00 | 0.00 | 75 | 1015.8 |
| 20260506183832 | 28 | 128 | 8.0 | 19.3 | 0.00 | 0.00 | 0.00 | 75 | 1015.8 |
| 20260506183323 | 28 | 176 | 12.9 | 19.3 | 0.00 | 0.00 | 0.00 | 75 | 1015.9 |
| 20260506182836 | 28 | 157 | 6.4 | 16.1 | 0.00 | 0.00 | 0.00 | 75 | 1015.9 |
| 20260506182325 | 28 | 142 | 6.4 | 14.5 | 0.00 | 0.00 | 0.00 | 75 | 1015.9 |
| 20260506181847 | 28 | 192 | 8.0 | 14.5 | 0.00 | 0.00 | 0.00 | 75 | 1016.0 |
| 20260506181338 | 28 | 153 | 8.0 | 14.5 | 0.00 | 0.00 | 0.00 | 75 | 1016.0 |
| 20260506180840 | 27 | 131 | 8.0 | 14.5 | 0.00 | 0.00 | 0.00 | 76 | 1016.1 |
| 20260506180334 | 27 | 165 | 9.7 | 14.5 | 0.00 | 0.00 | 0.00 | 76 | 1016.3 |
| 20260506175844 | 28 | 131 | 8.0 | 12.9 | 0.00 | 0.00 | 0.00 | 76 | 1016.3 |
| 20260506175328 | 28 | 154 | 8.0 | 14.5 | 0.00 | 0.00 | 0.00 | 77 | 1016.3 |
| 20260506174835 | 28 | 106 | 6.4 | 16.1 | 0.00 | 0.00 | 0.00 | 77 | 1016.3 |
| 20260506174322 | 28 | 112 | 8.0 | 14.5 | 0.00 | 0.00 | 0.00 | 77 | 1016.3 |
| 20260506173841 | 27 | 137 | 8.0 | 14.5 | 0.00 | 0.00 | 0.00 | 76 | 1016.3 |
| 20260506173335 | 28 | 197 | 4.8 | 12.9 | 0.00 | 0.00 | 0.00 | 77 | 1016.2 |
| 20260506172835 | 27 | 133 | 8.0 | 14.5 | 0.00 | 0.00 | 0.00 | 78 | 1016.3 |
| 20260506172345 | 27 | 136 | 9.7 | 14.5 | 0.00 | 0.00 | 0.00 | 77 | 1016.3 |
| 20260506171853 | 27 | 113 | 8.0 | 12.9 | 0.00 | 0.00 | 0.00 | 77 | 1016.4 |
| 20260506171336 | 27 | 121 | 6.4 | 14.5 | 0.00 | 0.00 | 0.00 | 77 | 1016.4 |
| 20260506170823 | 27 | 157 | 8.0 | 16.1 | 0.00 | 0.00 | 0.00 | 77 | 1016.5 |
| 20260506170338 | 27 | 172 | 9.7 | 14.5 | 0.00 | 0.00 | 0.00 | 76 | 1016.4 |
| 20260506165827 | 27 | 111 | 6.4 | 12.9 | 0.00 | 0.00 | 0.00 | 77 | 1016.5 |
| 20260506165347 | 27 | 131 | 8.0 | 14.5 | 0.00 | 0.00 | 0.00 | 77 | 1016.5 |
| 20260506164816 | 27 | 104 | 8.0 | 14.5 | 0.00 | 0.00 | 0.00 | 77 | 1016.6 |
| 20260506164330 | 27 | 179 | 8.0 | 14.5 | 0.00 | 0.00 | 0.00 | 77 | 1016.6 |
| 20260506163837 | 27 | 148 | 9.7 | 14.5 | 0.00 | 0.00 | 0.00 | 77 | 1016.5 |
| 20260506163331 | 27 | 151 | 8.0 | 12.9 | 0.00 | 0.00 | 0.00 | 76 | 1016.6 |
| 20260506162819 | 27 | 161 | 8.0 | 14.5 | 0.00 | 0.00 | 0.00 | 77 | 1016.6 |
| 20260506162332 | 27 | 182 | 8.0 | 14.5 | 0.00 | 0.00 | 0.00 | 76 | 1016.5 |
| 20260506161841 | 27 | 142 | 6.4 | 14.5 | 0.00 | 0.00 | 0.00 | 77 | 1016.6 |
| 20260506161346 | 27 | 99 | 6.4 | 14.5 | 0.00 | 0.00 | 0.00 | 77 | 1016.6 |